sensor_id;sensor_type;location;lat;lon;timestamp;P1;durP1;ratioP1;P2;durP2;ratioP2
51927;SDS011;37953;52.806;18.270;2022-12-15T00:01:23;101.67;;;39.03;;
51927;SDS011;37953;52.806;18.270;2022-12-15T00:04:07;108.03;;;39.80;;
51927;SDS011;37953;52.806;18.270;2022-12-15T00:06:51;114.40;;;41.57;;
51927;SDS011;37953;52.806;18.270;2022-12-15T00:09:36;113.80;;;42.13;;
51927;SDS011;37953;52.806;18.270;2022-12-15T00:12:20;111.13;;;40.93;;
51927;SDS011;37953;52.806;18.270;2022-12-15T00:15:05;110.30;;;40.60;;
51927;SDS011;37953;52.806;18.270;2022-12-15T00:17:50;109.67;;;40.77;;
51927;SDS011;37953;52.806;18.270;2022-12-15T00:20:34;109.97;;;42.00;;
51927;SDS011;37953;52.806;18.270;2022-12-15T00:23:19;113.60;;;42.17;;
51927;SDS011;37953;52.806;18.270;2022-12-15T00:26:03;107.17;;;40.83;;
51927;SDS011;37953;52.806;18.270;2022-12-15T00:28:47;113.20;;;43.17;;
51927;SDS011;37953;52.806;18.270;2022-12-15T00:31:32;116.40;;;45.03;;
51927;SDS011;37953;52.806;18.270;2022-12-15T00:34:16;114.50;;;43.80;;
51927;SDS011;37953;52.806;18.270;2022-12-15T00:37:01;114.67;;;44.17;;
51927;SDS011;37953;52.806;18.270;2022-12-15T00:39:45;121.63;;;47.13;;
51927;SDS011;37953;52.806;18.270;2022-12-15T00:42:11;121.60;;;45.40;;
51927;SDS011;37953;52.806;18.270;2022-12-15T00:44:37;120.60;;;44.40;;
51927;SDS011;37953;52.806;18.270;2022-12-15T00:47:03;112.53;;;43.03;;
51927;SDS011;37953;52.806;18.270;2022-12-15T00:49:30;114.47;;;43.83;;
51927;SDS011;37953;52.806;18.270;2022-12-15T00:52:16;113.63;;;41.87;;
51927;SDS011;37953;52.806;18.270;2022-12-15T00:55:01;123.10;;;43.67;;
51927;SDS011;37953;52.806;18.270;2022-12-15T00:57:47;129.90;;;44.70;;
51927;SDS011;37953;52.806;18.270;2022-12-15T01:00:32;114.27;;;41.90;;
51927;SDS011;37953;52.806;18.270;2022-12-15T01:03:18;117.13;;;41.67;;
51927;SDS011;37953;52.806;18.270;2022-12-15T01:06:09;100.33;;;39.50;;
51927;SDS011;37953;52.806;18.270;2022-12-15T01:09:00;105.03;;;38.20;;
51927;SDS011;37953;52.806;18.270;2022-12-15T01:11:45;107.73;;;39.23;;
51927;SDS011;37953;52.806;18.270;2022-12-15T01:14:31;98.13;;;38.37;;
51927;SDS011;37953;52.806;18.270;2022-12-15T01:17:16;104.80;;;39.97;;
51927;SDS011;37953;52.806;18.270;2022-12-15T01:20:01;127.63;;;46.23;;
51927;SDS011;37953;52.806;18.270;2022-12-15T01:22:51;118.90;;;41.57;;
51927;SDS011;37953;52.806;18.270;2022-12-15T01:25:21;106.80;;;39.10;;
51927;SDS011;37953;52.806;18.270;2022-12-15T01:27:48;102.23;;;37.40;;
51927;SDS011;37953;52.806;18.270;2022-12-15T01:30:16;101.10;;;37.70;;
51927;SDS011;37953;52.806;18.270;2022-12-15T01:32:49;106.23;;;37.97;;
51927;SDS011;37953;52.806;18.270;2022-12-15T01:35:21;106.63;;;38.27;;
51927;SDS011;37953;52.806;18.270;2022-12-15T01:37:47;103.37;;;37.83;;
51927;SDS011;37953;52.806;18.270;2022-12-15T01:40:14;109.07;;;37.90;;
51927;SDS011;37953;52.806;18.270;2022-12-15T01:43:00;103.47;;;38.03;;
51927;SDS011;37953;52.806;18.270;2022-12-15T01:45:36;118.47;;;40.37;;
51927;SDS011;37953;52.806;18.270;2022-12-15T01:50:57;111.20;;;41.70;;
51927;SDS011;37953;52.806;18.270;2022-12-15T01:53:36;113.73;;;40.03;;
51927;SDS011;37953;52.806;18.270;2022-12-15T01:56:24;109.93;;;42.23;;
51927;SDS011;37953;52.806;18.270;2022-12-15T01:58:52;106.77;;;39.43;;
51927;SDS011;37953;52.806;18.270;2022-12-15T02:01:21;108.97;;;40.58;;
51927;SDS011;37953;52.806;18.270;2022-12-15T02:03:47;102.57;;;38.77;;
51927;SDS011;37953;52.806;18.270;2022-12-15T02:06:13;104.70;;;38.77;;
51927;SDS011;37953;52.806;18.270;2022-12-15T02:08:40;106.97;;;38.47;;
51927;SDS011;37953;52.806;18.270;2022-12-15T02:28:09;92.33;;;34.93;;
51927;SDS011;37953;52.806;18.270;2022-12-15T02:30:45;89.30;;;34.20;;
51927;SDS011;37953;52.806;18.270;2022-12-15T02:33:34;97.60;;;35.07;;
51927;SDS011;37953;52.806;18.270;2022-12-15T02:38:53;96.60;;;36.40;;
51927;SDS011;37953;52.806;18.270;2022-12-15T02:44:28;104.13;;;38.33;;
51927;SDS011;37953;52.806;18.270;2022-12-15T02:58:38;109.90;;;38.70;;
51927;SDS011;37953;52.806;18.270;2022-12-15T03:01:39;112.05;;;40.85;;
51927;SDS011;37953;52.806;18.270;2022-12-15T03:04:19;119.60;;;40.10;;
51927;SDS011;37953;52.806;18.270;2022-12-15T03:06:54;109.23;;;39.43;;
51927;SDS011;37953;52.806;18.270;2022-12-15T03:09:21;111.57;;;40.63;;
51927;SDS011;37953;52.806;18.270;2022-12-15T03:11:47;120.93;;;41.53;;
51927;SDS011;37953;52.806;18.270;2022-12-15T03:14:13;126.13;;;40.43;;
51927;SDS011;37953;52.806;18.270;2022-12-15T03:16:39;120.80;;;40.47;;
51927;SDS011;37953;52.806;18.270;2022-12-15T03:19:05;109.70;;;39.67;;
51927;SDS011;37953;52.806;18.270;2022-12-15T03:21:31;112.50;;;38.10;;
51927;SDS011;37953;52.806;18.270;2022-12-15T03:23:57;107.10;;;37.93;;
51927;SDS011;37953;52.806;18.270;2022-12-15T03:26:23;115.40;;;39.40;;
51927;SDS011;37953;52.806;18.270;2022-12-15T03:28:49;108.60;;;40.37;;
51927;SDS011;37953;52.806;18.270;2022-12-15T03:31:15;101.70;;;37.60;;
51927;SDS011;37953;52.806;18.270;2022-12-15T03:33:41;116.90;;;39.53;;
51927;SDS011;37953;52.806;18.270;2022-12-15T03:36:07;116.00;;;41.65;;
51927;SDS011;37953;52.806;18.270;2022-12-15T03:38:34;120.50;;;42.70;;
51927;SDS011;37953;52.806;18.270;2022-12-15T03:40:59;114.17;;;42.47;;
51927;SDS011;37953;52.806;18.270;2022-12-15T03:43:25;125.93;;;43.17;;
51927;SDS011;37953;52.806;18.270;2022-12-15T03:45:51;127.07;;;43.97;;
51927;SDS011;37953;52.806;18.270;2022-12-15T03:48:17;137.60;;;44.77;;
51927;SDS011;37953;52.806;18.270;2022-12-15T03:50:43;144.10;;;43.10;;
51927;SDS011;37953;52.806;18.270;2022-12-15T03:53:09;149.20;;;43.58;;
51927;SDS011;37953;52.806;18.270;2022-12-15T03:55:35;160.13;;;44.03;;
51927;SDS011;37953;52.806;18.270;2022-12-15T03:58:01;158.03;;;44.57;;
51927;SDS011;37953;52.806;18.270;2022-12-15T04:00:27;177.88;;;48.92;;
51927;SDS011;37953;52.806;18.270;2022-12-15T04:02:53;172.67;;;48.20;;
51927;SDS011;37953;52.806;18.270;2022-12-15T04:05:21;161.30;;;45.60;;
51927;SDS011;37953;52.806;18.270;2022-12-15T04:07:52;157.20;;;45.57;;
51927;SDS011;37953;52.806;18.270;2022-12-15T04:10:18;143.45;;;43.15;;
51927;SDS011;37953;52.806;18.270;2022-12-15T04:12:45;161.83;;;46.27;;
51927;SDS011;37953;52.806;18.270;2022-12-15T04:15:11;189.38;;;49.28;;
51927;SDS011;37953;52.806;18.270;2022-12-15T04:17:43;190.77;;;50.53;;
51927;SDS011;37953;52.806;18.270;2022-12-15T04:20:09;194.90;;;50.70;;
51927;SDS011;37953;52.806;18.270;2022-12-15T04:22:42;190.00;;;50.27;;
51927;SDS011;37953;52.806;18.270;2022-12-15T04:25:29;190.27;;;51.00;;
51927;SDS011;37953;52.806;18.270;2022-12-15T04:28:14;198.30;;;50.67;;
51927;SDS011;37953;52.806;18.270;2022-12-15T04:31:00;199.00;;;51.30;;
51927;SDS011;37953;52.806;18.270;2022-12-15T04:33:50;199.05;;;49.65;;
51927;SDS011;37953;52.806;18.270;2022-12-15T04:36:37;198.43;;;52.30;;
51927;SDS011;37953;52.806;18.270;2022-12-15T04:39:25;214.40;;;52.55;;
51927;SDS011;37953;52.806;18.270;2022-12-15T04:42:10;224.82;;;56.17;;
51927;SDS011;37953;52.806;18.270;2022-12-15T04:44:56;225.80;;;52.40;;
51927;SDS011;37953;52.806;18.270;2022-12-15T04:47:43;181.83;;;48.37;;
51927;SDS011;37953;52.806;18.270;2022-12-15T04:50:27;182.63;;;47.57;;
51927;SDS011;37953;52.806;18.270;2022-12-15T04:53:12;142.35;;;40.95;;
51927;SDS011;37953;52.806;18.270;2022-12-15T04:56:03;127.63;;;37.40;;
51927;SDS011;37953;52.806;18.270;2022-12-15T04:58:52;127.82;;;37.97;;
51927;SDS011;37953;52.806;18.270;2022-12-15T05:01:37;97.88;;;31.23;;
51927;SDS011;37953;52.806;18.270;2022-12-15T05:04:21;81.00;;;28.02;;
51927;SDS011;37953;52.806;18.270;2022-12-15T05:07:06;81.28;;;27.73;;
51927;SDS011;37953;52.806;18.270;2022-12-15T05:09:50;85.18;;;28.42;;
51927;SDS011;37953;52.806;18.270;2022-12-15T05:12:35;84.93;;;27.50;;
51927;SDS011;37953;52.806;18.270;2022-12-15T05:15:19;88.03;;;27.83;;
51927;SDS011;37953;52.806;18.270;2022-12-15T05:18:03;81.65;;;27.85;;
51927;SDS011;37953;52.806;18.270;2022-12-15T05:20:47;80.80;;;27.97;;
51927;SDS011;37953;52.806;18.270;2022-12-15T05:23:32;80.82;;;29.45;;
51927;SDS011;37953;52.806;18.270;2022-12-15T05:26:16;90.85;;;31.80;;
51927;SDS011;37953;52.806;18.270;2022-12-15T05:29:01;90.13;;;30.27;;
51927;SDS011;37953;52.806;18.270;2022-12-15T05:31:45;90.37;;;31.10;;
51927;SDS011;37953;52.806;18.270;2022-12-15T05:34:37;90.18;;;30.98;;
51927;SDS011;37953;52.806;18.270;2022-12-15T05:37:03;83.10;;;29.17;;
51927;SDS011;37953;52.806;18.270;2022-12-15T05:39:30;77.60;;;27.23;;
51927;SDS011;37953;52.806;18.270;2022-12-15T05:41:56;85.10;;;28.88;;
51927;SDS011;37953;52.806;18.270;2022-12-15T05:44:23;85.75;;;29.17;;
51927;SDS011;37953;52.806;18.270;2022-12-15T05:46:49;82.00;;;28.00;;
51927;SDS011;37953;52.806;18.270;2022-12-15T05:49:16;92.82;;;31.58;;
51927;SDS011;37953;52.806;18.270;2022-12-15T05:51:43;90.28;;;30.90;;
51927;SDS011;37953;52.806;18.270;2022-12-15T05:54:12;88.82;;;31.17;;
51927;SDS011;37953;52.806;18.270;2022-12-15T05:56:40;89.13;;;31.83;;
51927;SDS011;37953;52.806;18.270;2022-12-15T05:59:06;82.18;;;29.85;;
51927;SDS011;37953;52.806;18.270;2022-12-15T06:01:32;82.68;;;29.00;;
51927;SDS011;37953;52.806;18.270;2022-12-15T06:04:00;84.13;;;28.55;;
51927;SDS011;37953;52.806;18.270;2022-12-15T06:06:26;86.63;;;29.23;;
51927;SDS011;37953;52.806;18.270;2022-12-15T06:08:59;121.15;;;34.42;;
51927;SDS011;37953;52.806;18.270;2022-12-15T06:11:25;108.87;;;34.73;;
51927;SDS011;37953;52.806;18.270;2022-12-15T06:13:53;99.80;;;33.33;;
51927;SDS011;37953;52.806;18.270;2022-12-15T06:16:20;95.85;;;31.27;;
51927;SDS011;37953;52.806;18.270;2022-12-15T06:18:48;82.88;;;29.98;;
51927;SDS011;37953;52.806;18.270;2022-12-15T06:21:22;88.88;;;31.08;;
51927;SDS011;37953;52.806;18.270;2022-12-15T06:23:53;88.32;;;31.33;;
51927;SDS011;37953;52.806;18.270;2022-12-15T06:26:20;86.32;;;28.27;;
51927;SDS011;37953;52.806;18.270;2022-12-15T06:28:59;132.43;;;42.88;;
51927;SDS011;37953;52.806;18.270;2022-12-15T06:31:27;122.57;;;37.13;;
51927;SDS011;37953;52.806;18.270;2022-12-15T06:33:54;101.65;;;33.35;;
51927;SDS011;37953;52.806;18.270;2022-12-15T06:36:28;115.80;;;39.00;;
51927;SDS011;37953;52.806;18.270;2022-12-15T06:38:58;105.85;;;35.90;;
51927;SDS011;37953;52.806;18.270;2022-12-15T06:41:25;97.28;;;32.47;;
51927;SDS011;37953;52.806;18.270;2022-12-15T06:43:53;109.60;;;37.15;;
51927;SDS011;37953;52.806;18.270;2022-12-15T06:46:22;91.60;;;32.10;;
51927;SDS011;37953;52.806;18.270;2022-12-15T06:48:50;84.70;;;28.80;;
51927;SDS011;37953;52.806;18.270;2022-12-15T06:51:16;80.93;;;28.25;;
51927;SDS011;37953;52.806;18.270;2022-12-15T06:53:42;80.00;;;28.70;;
51927;SDS011;37953;52.806;18.270;2022-12-15T06:58:52;82.65;;;31.90;;
51927;SDS011;37953;52.806;18.270;2022-12-15T07:01:19;99.70;;;34.00;;
51927;SDS011;37953;52.806;18.270;2022-12-15T07:03:51;84.65;;;29.90;;
51927;SDS011;37953;52.806;18.270;2022-12-15T07:06:18;75.20;;;29.10;;
51927;SDS011;37953;52.806;18.270;2022-12-15T07:08:47;88.15;;;30.65;;
51927;SDS011;37953;52.806;18.270;2022-12-15T07:11:16;86.40;;;31.67;;
51927;SDS011;37953;52.806;18.270;2022-12-15T07:13:47;86.72;;;31.75;;
51927;SDS011;37953;52.806;18.270;2022-12-15T07:16:16;98.47;;;32.03;;
51927;SDS011;37953;52.806;18.270;2022-12-15T07:18:43;87.72;;;32.50;;
51927;SDS011;37953;52.806;18.270;2022-12-15T07:21:09;99.73;;;34.70;;
51927;SDS011;37953;52.806;18.270;2022-12-15T07:23:36;102.50;;;36.67;;
51927;SDS011;37953;52.806;18.270;2022-12-15T07:26:06;169.00;;;52.90;;
51927;SDS011;37953;52.806;18.270;2022-12-15T07:28:34;262.55;;;75.82;;
51927;SDS011;37953;52.806;18.270;2022-12-15T07:31:02;219.13;;;69.97;;
51927;SDS011;37953;52.806;18.270;2022-12-15T07:33:35;721.35;;;281.10;;
51927;SDS011;37953;52.806;18.270;2022-12-15T07:36:02;434.30;;;145.30;;
51927;SDS011;37953;52.806;18.270;2022-12-15T07:38:44;441.10;;;150.45;;
51927;SDS011;37953;52.806;18.270;2022-12-15T07:41:10;605.50;;;218.55;;
51927;SDS011;37953;52.806;18.270;2022-12-15T07:43:36;613.47;;;224.90;;
51927;SDS011;37953;52.806;18.270;2022-12-15T07:46:02;385.73;;;126.37;;
51927;SDS011;37953;52.806;18.270;2022-12-15T07:48:29;268.80;;;85.73;;
51927;SDS011;37953;52.806;18.270;2022-12-15T07:50:55;178.35;;;57.58;;
51927;SDS011;37953;52.806;18.270;2022-12-15T07:53:24;117.20;;;42.60;;
51927;SDS011;37953;52.806;18.270;2022-12-15T07:55:58;111.82;;;41.55;;
51927;SDS011;37953;52.806;18.270;2022-12-15T07:58:25;116.37;;;43.77;;
51927;SDS011;37953;52.806;18.270;2022-12-15T08:00:53;117.10;;;42.77;;
51927;SDS011;37953;52.806;18.270;2022-12-15T08:03:24;121.45;;;43.13;;
51927;SDS011;37953;52.806;18.270;2022-12-15T08:05:50;136.95;;;47.83;;
51927;SDS011;37953;52.806;18.270;2022-12-15T08:08:17;148.43;;;50.38;;
51927;SDS011;37953;52.806;18.270;2022-12-15T08:10:43;142.48;;;49.97;;
51927;SDS011;37953;52.806;18.270;2022-12-15T08:13:09;145.10;;;48.88;;
51927;SDS011;37953;52.806;18.270;2022-12-15T08:15:35;168.48;;;54.90;;
51927;SDS011;37953;52.806;18.270;2022-12-15T08:18:07;179.88;;;61.25;;
51927;SDS011;37953;52.806;18.270;2022-12-15T08:20:33;179.05;;;62.20;;
51927;SDS011;37953;52.806;18.270;2022-12-15T08:23:00;194.65;;;64.75;;
51927;SDS011;37953;52.806;18.270;2022-12-15T08:25:26;202.85;;;68.15;;
51927;SDS011;37953;52.806;18.270;2022-12-15T08:27:56;176.30;;;62.25;;
51927;SDS011;37953;52.806;18.270;2022-12-15T08:30:29;150.35;;;54.33;;
51927;SDS011;37953;52.806;18.270;2022-12-15T08:32:57;165.90;;;57.92;;
51927;SDS011;37953;52.806;18.270;2022-12-15T08:35:26;176.48;;;57.70;;
51927;SDS011;37953;52.806;18.270;2022-12-15T08:37:52;175.50;;;59.60;;
51927;SDS011;37953;52.806;18.270;2022-12-15T08:40:18;172.35;;;58.88;;
51927;SDS011;37953;52.806;18.270;2022-12-15T08:42:45;143.57;;;53.58;;
51927;SDS011;37953;52.806;18.270;2022-12-15T08:45:10;143.82;;;52.28;;
51927;SDS011;37953;52.806;18.270;2022-12-15T08:47:37;140.27;;;50.95;;
51927;SDS011;37953;52.806;18.270;2022-12-15T08:50:05;133.07;;;49.22;;
51927;SDS011;37953;52.806;18.270;2022-12-15T08:52:36;136.27;;;52.17;;
51927;SDS011;37953;52.806;18.270;2022-12-15T08:55:07;120.95;;;47.15;;
51927;SDS011;37953;52.806;18.270;2022-12-15T08:57:38;142.05;;;50.92;;
51927;SDS011;37953;52.806;18.270;2022-12-15T09:00:05;140.40;;;52.63;;
51927;SDS011;37953;52.806;18.270;2022-12-15T09:02:31;134.90;;;52.50;;
51927;SDS011;37953;52.806;18.270;2022-12-15T09:04:57;141.60;;;49.72;;
51927;SDS011;37953;52.806;18.270;2022-12-15T09:07:23;129.68;;;48.75;;
51927;SDS011;37953;52.806;18.270;2022-12-15T09:09:49;138.60;;;51.10;;
51927;SDS011;37953;52.806;18.270;2022-12-15T09:12:15;139.65;;;51.78;;
51927;SDS011;37953;52.806;18.270;2022-12-15T09:14:41;130.27;;;48.20;;
51927;SDS011;37953;52.806;18.270;2022-12-15T09:17:10;125.88;;;48.72;;
51927;SDS011;37953;52.806;18.270;2022-12-15T09:19:37;126.85;;;48.20;;
51927;SDS011;37953;52.806;18.270;2022-12-15T09:22:03;139.00;;;52.40;;
51927;SDS011;37953;52.806;18.270;2022-12-15T09:24:35;141.02;;;50.15;;
51927;SDS011;37953;52.806;18.270;2022-12-15T09:27:01;128.45;;;49.42;;
51927;SDS011;37953;52.806;18.270;2022-12-15T09:29:28;138.95;;;51.65;;
51927;SDS011;37953;52.806;18.270;2022-12-15T09:31:54;134.68;;;50.15;;
51927;SDS011;37953;52.806;18.270;2022-12-15T09:34:20;148.15;;;53.67;;
51927;SDS011;37953;52.806;18.270;2022-12-15T09:36:46;145.52;;;52.60;;
51927;SDS011;37953;52.806;18.270;2022-12-15T09:39:12;136.73;;;50.80;;
51927;SDS011;37953;52.806;18.270;2022-12-15T09:41:40;147.98;;;55.72;;
51927;SDS011;37953;52.806;18.270;2022-12-15T09:44:19;151.88;;;54.95;;
51927;SDS011;37953;52.806;18.270;2022-12-15T09:52:17;136.07;;;50.25;;
51927;SDS011;37953;52.806;18.270;2022-12-15T09:54:46;126.80;;;48.95;;
51927;SDS011;37953;52.806;18.270;2022-12-15T10:00:05;120.43;;;48.17;;
51927;SDS011;37953;52.806;18.270;2022-12-15T10:05:51;132.68;;;50.97;;
51927;SDS011;37953;52.806;18.270;2022-12-15T10:08:30;132.65;;;50.67;;
51927;SDS011;37953;52.806;18.270;2022-12-15T10:11:00;135.50;;;50.53;;
51927;SDS011;37953;52.806;18.270;2022-12-15T10:19:43;131.68;;;48.60;;
51927;SDS011;37953;52.806;18.270;2022-12-15T10:22:31;129.52;;;49.47;;
51927;SDS011;37953;52.806;18.270;2022-12-15T10:25:01;133.00;;;49.75;;
51927;SDS011;37953;52.806;18.270;2022-12-15T10:30:31;161.98;;;56.33;;
51927;SDS011;37953;52.806;18.270;2022-12-15T10:33:18;594.03;;;146.43;;
51927;SDS011;37953;52.806;18.270;2022-12-15T10:35:52;334.50;;;92.53;;
51927;SDS011;37953;52.806;18.270;2022-12-15T10:41:03;217.07;;;71.82;;
51927;SDS011;37953;52.806;18.270;2022-12-15T10:43:36;188.75;;;62.47;;
51927;SDS011;37953;52.806;18.270;2022-12-15T10:46:16;150.32;;;56.05;;
51927;SDS011;37953;52.806;18.270;2022-12-15T10:49:19;138.48;;;53.72;;
51927;SDS011;37953;52.806;18.270;2022-12-15T10:51:51;181.68;;;65.30;;
51927;SDS011;37953;52.806;18.270;2022-12-15T10:54:20;189.98;;;70.50;;
51927;SDS011;37953;52.806;18.270;2022-12-15T10:56:56;172.30;;;64.53;;
51927;SDS011;37953;52.806;18.270;2022-12-15T10:59:30;168.68;;;63.42;;
51927;SDS011;37953;52.806;18.270;2022-12-15T11:02:43;151.10;;;58.35;;
51927;SDS011;37953;52.806;18.270;2022-12-15T11:04:56;139.48;;;56.08;;
51927;SDS011;37953;52.806;18.270;2022-12-15T11:07:30;139.73;;;54.85;;
51927;SDS011;37953;52.806;18.270;2022-12-15T11:10:07;145.40;;;56.28;;
51927;SDS011;37953;52.806;18.270;2022-12-15T11:13:17;133.82;;;52.50;;
51927;SDS011;37953;52.806;18.270;2022-12-15T11:15:51;129.73;;;51.03;;
51927;SDS011;37953;52.806;18.270;2022-12-15T11:20:57;140.50;;;54.40;;
51927;SDS011;37953;52.806;18.270;2022-12-15T11:23:29;160.82;;;60.25;;
51927;SDS011;37953;52.806;18.270;2022-12-15T11:29:30;169.63;;;62.63;;
51927;SDS011;37953;52.806;18.270;2022-12-15T11:32:18;160.45;;;60.03;;
51927;SDS011;37953;52.806;18.270;2022-12-15T11:34:48;157.55;;;60.20;;
51927;SDS011;37953;52.806;18.270;2022-12-15T11:42:56;152.65;;;59.03;;
51927;SDS011;37953;52.806;18.270;2022-12-15T11:48:22;138.23;;;54.35;;
51927;SDS011;37953;52.806;18.270;2022-12-15T11:51:03;138.15;;;53.03;;
51927;SDS011;37953;52.806;18.270;2022-12-15T12:08:13;134.13;;;52.15;;
51927;SDS011;37953;52.806;18.270;2022-12-15T12:13:55;132.13;;;51.17;;
51927;SDS011;37953;52.806;18.270;2022-12-15T12:16:30;128.70;;;49.17;;
51927;SDS011;37953;52.806;18.270;2022-12-15T12:19:30;140.30;;;49.70;;
51927;SDS011;37953;52.806;18.270;2022-12-15T12:22:01;130.55;;;52.20;;
51927;SDS011;37953;52.806;18.270;2022-12-15T12:27:52;126.40;;;49.88;;
51927;SDS011;37953;52.806;18.270;2022-12-15T12:30:55;123.55;;;49.88;;
51927;SDS011;37953;52.806;18.270;2022-12-15T12:33:28;124.13;;;48.65;;
51927;SDS011;37953;52.806;18.270;2022-12-15T12:36:02;127.93;;;48.03;;
51927;SDS011;37953;52.806;18.270;2022-12-15T12:38:53;123.07;;;47.63;;
51927;SDS011;37953;52.806;18.270;2022-12-15T12:46:48;126.07;;;49.33;;
51927;SDS011;37953;52.806;18.270;2022-12-15T12:52:12;128.65;;;48.03;;
51927;SDS011;37953;52.806;18.270;2022-12-15T12:54:50;104.10;;;43.95;;
51927;SDS011;37953;52.806;18.270;2022-12-15T12:57:28;115.05;;;43.13;;
51927;SDS011;37953;52.806;18.270;2022-12-15T13:02:53;97.68;;;41.17;;
51927;SDS011;37953;52.806;18.270;2022-12-15T13:05:39;101.72;;;40.42;;
51927;SDS011;37953;52.806;18.270;2022-12-15T13:10:36;110.38;;;42.35;;
51927;SDS011;37953;52.806;18.270;2022-12-15T13:18:59;111.10;;;44.13;;
51927;SDS011;37953;52.806;18.270;2022-12-15T13:37:45;131.60;;;47.08;;
51927;SDS011;37953;52.806;18.270;2022-12-15T13:40:57;104.68;;;41.75;;
51927;SDS011;37953;52.806;18.270;2022-12-15T13:45:47;87.65;;;36.70;;
51927;SDS011;37953;52.806;18.270;2022-12-15T13:53:41;86.80;;;37.42;;
51927;SDS011;37953;52.806;18.270;2022-12-15T13:56:24;92.32;;;38.55;;
51927;SDS011;37953;52.806;18.270;2022-12-15T13:59:17;87.45;;;36.72;;
51927;SDS011;37953;52.806;18.270;2022-12-15T14:01:51;93.47;;;37.40;;
51927;SDS011;37953;52.806;18.270;2022-12-15T14:04:18;89.60;;;37.95;;
51927;SDS011;37953;52.806;18.270;2022-12-15T14:06:46;85.15;;;35.90;;
51927;SDS011;37953;52.806;18.270;2022-12-15T14:09:40;85.65;;;36.85;;
51927;SDS011;37953;52.806;18.270;2022-12-15T14:12:07;89.03;;;36.78;;
51927;SDS011;37953;52.806;18.270;2022-12-15T14:14:41;183.35;;;80.07;;
51927;SDS011;37953;52.806;18.270;2022-12-15T14:17:12;165.25;;;71.57;;
51927;SDS011;37953;52.806;18.270;2022-12-15T14:19:42;102.22;;;44.72;;
51927;SDS011;37953;52.806;18.270;2022-12-15T14:22:22;91.95;;;39.63;;
51927;SDS011;37953;52.806;18.270;2022-12-15T14:25:07;96.20;;;40.50;;
51927;SDS011;37953;52.806;18.270;2022-12-15T14:27:55;92.47;;;39.25;;
51927;SDS011;37953;52.806;18.270;2022-12-15T14:30:28;93.05;;;38.55;;
51927;SDS011;37953;52.806;18.270;2022-12-15T14:35:39;95.97;;;40.60;;
51927;SDS011;37953;52.806;18.270;2022-12-15T14:38:13;105.00;;;42.85;;
51927;SDS011;37953;52.806;18.270;2022-12-15T14:40:42;89.65;;;35.15;;
51927;SDS011;37953;52.806;18.270;2022-12-15T14:43:21;78.05;;;32.25;;
51927;SDS011;37953;52.806;18.270;2022-12-15T14:45:53;79.43;;;33.58;;
51927;SDS011;37953;52.806;18.270;2022-12-15T14:48:28;85.53;;;33.13;;
51927;SDS011;37953;52.806;18.270;2022-12-15T14:51:14;83.15;;;33.22;;
51927;SDS011;37953;52.806;18.270;2022-12-15T14:53:42;79.55;;;33.90;;
51927;SDS011;37953;52.806;18.270;2022-12-15T14:56:23;80.53;;;33.30;;
51927;SDS011;37953;52.806;18.270;2022-12-15T14:58:56;77.95;;;32.17;;
51927;SDS011;37953;52.806;18.270;2022-12-15T15:04:04;100.00;;;37.30;;
51927;SDS011;37953;52.806;18.270;2022-12-15T15:07:00;81.32;;;33.72;;
51927;SDS011;37953;52.806;18.270;2022-12-15T15:09:30;74.82;;;30.98;;
51927;SDS011;37953;52.806;18.270;2022-12-15T15:12:58;76.70;;;32.40;;
51927;SDS011;37953;52.806;18.270;2022-12-15T15:15:18;75.93;;;31.35;;
51927;SDS011;37953;52.806;18.270;2022-12-15T15:20:19;75.25;;;31.70;;
51927;SDS011;37953;52.806;18.270;2022-12-15T15:25:50;84.45;;;36.38;;
51927;SDS011;37953;52.806;18.270;2022-12-15T15:28:27;80.82;;;34.47;;
51927;SDS011;37953;52.806;18.270;2022-12-15T15:33:54;70.63;;;31.67;;
51927;SDS011;37953;52.806;18.270;2022-12-15T15:36:33;79.32;;;31.25;;
51927;SDS011;37953;52.806;18.270;2022-12-15T15:39:14;111.03;;;45.28;;
51927;SDS011;37953;52.806;18.270;2022-12-15T15:41:40;94.20;;;38.38;;
51927;SDS011;37953;52.806;18.270;2022-12-15T15:44:13;123.00;;;45.05;;
51927;SDS011;37953;52.806;18.270;2022-12-15T15:46:50;104.13;;;42.25;;
51927;SDS011;37953;52.806;18.270;2022-12-15T15:49:17;103.47;;;41.88;;
51927;SDS011;37953;52.806;18.270;2022-12-15T15:51:45;100.85;;;41.55;;
51927;SDS011;37953;52.806;18.270;2022-12-15T15:54:18;89.15;;;37.65;;
51927;SDS011;37953;52.806;18.270;2022-12-15T15:56:49;78.82;;;34.22;;
51927;SDS011;37953;52.806;18.270;2022-12-15T15:59:15;84.35;;;35.25;;
51927;SDS011;37953;52.806;18.270;2022-12-15T16:01:52;84.97;;;35.47;;
51927;SDS011;37953;52.806;18.270;2022-12-15T16:04:20;85.40;;;35.25;;
51927;SDS011;37953;52.806;18.270;2022-12-15T16:06:48;88.60;;;37.03;;
51927;SDS011;37953;52.806;18.270;2022-12-15T16:09:14;90.22;;;37.28;;
51927;SDS011;37953;52.806;18.270;2022-12-15T16:11:41;89.68;;;36.90;;
51927;SDS011;37953;52.806;18.270;2022-12-15T16:14:15;91.55;;;38.08;;
51927;SDS011;37953;52.806;18.270;2022-12-15T16:16:42;100.70;;;39.17;;
51927;SDS011;37953;52.806;18.270;2022-12-15T16:19:10;98.22;;;38.40;;
51927;SDS011;37953;52.806;18.270;2022-12-15T16:21:39;93.82;;;37.03;;
51927;SDS011;37953;52.806;18.270;2022-12-15T16:24:14;85.10;;;36.88;;
51927;SDS011;37953;52.806;18.270;2022-12-15T16:26:49;91.32;;;37.45;;
51927;SDS011;37953;52.806;18.270;2022-12-15T16:29:16;94.22;;;37.05;;
51927;SDS011;37953;52.806;18.270;2022-12-15T16:31:44;90.35;;;37.83;;
51927;SDS011;37953;52.806;18.270;2022-12-15T16:34:11;88.65;;;34.63;;
51927;SDS011;37953;52.806;18.270;2022-12-15T16:36:38;87.18;;;36.78;;
51927;SDS011;37953;52.806;18.270;2022-12-15T16:39:10;91.63;;;37.97;;
51927;SDS011;37953;52.806;18.270;2022-12-15T16:41:47;102.75;;;41.05;;
51927;SDS011;37953;52.806;18.270;2022-12-15T16:44:13;97.88;;;40.45;;
51927;SDS011;37953;52.806;18.270;2022-12-15T16:46:39;108.00;;;43.15;;
51927;SDS011;37953;52.806;18.270;2022-12-15T16:49:05;103.45;;;41.17;;
51927;SDS011;37953;52.806;18.270;2022-12-15T16:51:37;108.82;;;42.15;;
51927;SDS011;37953;52.806;18.270;2022-12-15T16:54:08;100.07;;;39.38;;
51927;SDS011;37953;52.806;18.270;2022-12-15T16:56:49;111.88;;;44.85;;
51927;SDS011;37953;52.806;18.270;2022-12-15T16:59:18;126.80;;;48.83;;
51927;SDS011;37953;52.806;18.270;2022-12-15T17:01:46;109.70;;;45.70;;
51927;SDS011;37953;52.806;18.270;2022-12-15T17:04:12;104.65;;;43.33;;
51927;SDS011;37953;52.806;18.270;2022-12-15T17:06:45;110.57;;;43.65;;
51927;SDS011;37953;52.806;18.270;2022-12-15T17:09:19;109.63;;;45.72;;
51927;SDS011;37953;52.806;18.270;2022-12-15T17:11:49;120.40;;;49.75;;
51927;SDS011;37953;52.806;18.270;2022-12-15T17:14:16;136.35;;;51.55;;